createdAt,value
2023-04-10T00:01:26.301Z,40.10
2023-04-10T00:03:54.192Z,33.30
2023-04-10T00:06:21.664Z,41.63
2023-04-10T00:08:48.905Z,38.80
2023-04-10T00:11:15.905Z,35.95
2023-04-10T00:13:43.245Z,33.05
2023-04-10T00:16:13.463Z,35.42
2023-04-10T00:18:40.960Z,31.55
2023-04-10T00:21:08.202Z,38.17
2023-04-10T00:23:35.472Z,33.35
2023-04-10T00:26:02.500Z,36.67
2023-04-10T00:28:29.926Z,40.53
2023-04-10T00:30:56.900Z,33.97
2023-04-10T00:33:24.259Z,38.00
2023-04-10T00:35:51.276Z,37.95
2023-04-10T00:38:18.713Z,34.33
2023-04-10T00:40:45.832Z,37.03
2023-04-10T00:43:13.322Z,35.58
2023-04-10T00:45:40.809Z,33.50
2023-04-10T00:48:08.277Z,31.52
2023-04-10T00:50:35.519Z,39.70
2023-04-10T00:53:03.483Z,31.70
2023-04-10T00:55:30.751Z,35.72
2023-04-10T00:57:58.610Z,34.42
2023-04-10T01:00:25.888Z,37.47
2023-04-10T01:02:54.798Z,33.50
2023-04-10T01:05:22.735Z,32.30
2023-04-10T01:08:02.712Z,33.75
2023-04-10T01:10:35.123Z,33.55
2023-04-10T01:13:11.392Z,29.27
2023-04-10T01:15:47.960Z,34.30
2023-04-10T01:18:44.141Z,35.47
2023-04-10T01:21:14.269Z,29.02
2023-04-10T01:23:47.693Z,34.00
2023-04-10T01:28:56.796Z,27.25
2023-04-10T01:31:51.348Z,27.50
2023-04-10T01:34:28.739Z,27.20
2023-04-10T01:37:00.989Z,34.38
2023-04-10T01:39:30.362Z,28.70
2023-04-10T01:42:00.004Z,34.28
2023-04-10T01:44:31.563Z,33.03
2023-04-10T01:47:00.691Z,35.20
2023-04-10T01:49:30.480Z,38.42
2023-04-10T01:52:00.270Z,37.58
2023-04-10T01:54:28.757Z,47.45
2023-04-10T01:56:56.819Z,37.13
2023-04-10T01:59:24.677Z,38.10
2023-04-10T02:01:58.936Z,31.67
2023-04-10T02:04:26.840Z,37.90
2023-04-10T02:07:13.857Z,36.00
2023-04-10T02:10:08.405Z,36.50
2023-04-10T02:12:41.732Z,32.08
2023-04-10T02:15:10.066Z,33.50
2023-04-10T02:17:38.940Z,30.45
2023-04-10T02:20:08.913Z,33.13
2023-04-10T02:22:37.058Z,31.90
2023-04-10T02:25:06.100Z,35.28
2023-04-10T02:27:34.987Z,34.13
2023-04-10T02:30:06.453Z,36.92
2023-04-10T02:32:33.792Z,34.75
2023-04-10T02:35:04.467Z,28.85
2023-04-10T02:37:32.919Z,31.20
2023-04-10T02:40:00.585Z,24.98
2023-04-10T02:42:27.604Z,28.63
2023-04-10T02:44:55.244Z,27.05
2023-04-10T02:47:22.414Z,29.20
2023-04-10T02:49:49.757Z,36.15
2023-04-10T02:52:17.390Z,38.17
2023-04-10T02:54:44.745Z,34.22
2023-04-10T02:57:11.793Z,29.23
2023-04-10T02:59:39.100Z,33.60
2023-04-10T03:02:06.327Z,29.73
2023-04-10T03:04:33.818Z,27.48
2023-04-10T03:07:00.859Z,26.80
2023-04-10T03:09:28.242Z,37.17
2023-04-10T03:11:55.304Z,33.90
2023-04-10T03:14:23.248Z,32.97
2023-04-10T03:16:50.570Z,30.05
2023-04-10T03:19:17.781Z,32.08
2023-04-10T03:21:46.454Z,36.28
2023-04-10T03:24:13.743Z,28.90
2023-04-10T03:26:43.596Z,27.85
2023-04-10T03:29:11.002Z,27.38
2023-04-10T03:31:38.101Z,30.30
2023-04-10T03:34:05.817Z,32.58
2023-04-10T03:36:33.031Z,31.52
2023-04-10T03:39:00.302Z,28.83
2023-04-10T03:41:27.362Z,30.33
2023-04-10T03:43:55.019Z,24.67
2023-04-10T03:46:22.913Z,28.92
2023-04-10T03:48:51.195Z,22.05
2023-04-10T03:51:18.539Z,24.45
2023-04-10T03:53:46.139Z,23.25
2023-04-10T03:56:13.208Z,29.85
2023-04-10T03:58:40.653Z,41.83
2023-04-10T04:01:07.758Z,40.58
2023-04-10T04:03:35.257Z,31.58
2023-04-10T04:06:02.484Z,26.48
2023-04-10T04:08:29.837Z,23.40
2023-04-10T04:10:56.908Z,24.40
2023-04-10T04:13:24.457Z,25.42
2023-04-10T04:15:51.384Z,23.50
2023-04-10T04:18:18.787Z,21.52
2023-04-10T04:20:45.810Z,23.08
2023-04-10T04:23:13.366Z,22.45
2023-04-10T04:25:40.543Z,27.27
2023-04-10T04:28:08.050Z,23.95
2023-04-10T04:30:35.339Z,25.02
2023-04-10T04:33:06.312Z,22.48
2023-04-10T04:35:33.627Z,21.63
2023-04-10T04:38:01.020Z,22.67
2023-04-10T04:40:27.990Z,23.50
2023-04-10T04:42:55.567Z,23.35
2023-04-10T04:45:22.607Z,20.38
2023-04-10T04:47:50.372Z,25.83
2023-04-10T04:50:17.450Z,20.33
2023-04-10T04:52:44.741Z,18.83
2023-04-10T04:55:11.840Z,26.85
2023-04-10T04:57:39.460Z,25.52
2023-04-10T05:00:07.773Z,25.75
2023-04-10T05:02:35.757Z,24.48
2023-04-10T05:05:03.118Z,23.50
2023-04-10T05:07:31.296Z,21.90
2023-04-10T05:09:58.253Z,23.88
2023-04-10T05:12:25.835Z,22.63
2023-04-10T05:14:53.507Z,26.25
2023-04-10T05:17:21.428Z,23.70
2023-04-10T05:19:48.457Z,23.80
2023-04-10T05:22:18.025Z,25.35
2023-04-10T05:24:45.604Z,24.70
2023-04-10T05:27:13.113Z,26.13
2023-04-10T05:29:40.845Z,23.75
2023-04-10T05:32:08.149Z,26.65
2023-04-10T05:34:35.158Z,25.27
2023-04-10T05:37:02.476Z,26.80
2023-04-10T05:39:29.908Z,25.63
2023-04-10T05:41:58.410Z,26.25
2023-04-10T05:44:25.638Z,25.35
2023-04-10T05:46:52.947Z,25.50
2023-04-10T05:49:20.052Z,29.95
2023-04-10T05:51:50.303Z,25.08
2023-04-10T05:54:17.472Z,29.38
2023-04-10T05:56:46.571Z,24.92
2023-04-10T05:59:14.147Z,22.02
2023-04-10T06:01:42.211Z,19.85
2023-04-10T06:04:09.471Z,23.02
2023-04-10T06:06:37.217Z,18.77
2023-04-10T06:09:04.178Z,15.45
2023-04-10T06:11:32.108Z,15.55
2023-04-10T06:13:59.104Z,13.73
2023-04-10T06:16:26.832Z,11.32
2023-04-10T06:18:54.655Z,16.17
2023-04-10T06:21:22.436Z,16.45
2023-04-10T06:23:49.541Z,15.57
2023-04-10T06:26:17.227Z,13.85
2023-04-10T06:28:45.068Z,14.82
2023-04-10T06:31:12.943Z,13.77
2023-04-10T06:33:39.934Z,14.38
2023-04-10T06:36:08.068Z,12.05
2023-04-10T06:38:37.859Z,12.90
2023-04-10T06:41:06.354Z,14.93
2023-04-10T06:43:35.590Z,12.23
2023-04-10T06:46:06.673Z,14.60
2023-04-10T06:48:34.263Z,12.60
2023-04-10T06:51:01.728Z,12.90
2023-04-10T06:53:29.110Z,17.02
2023-04-10T06:55:57.423Z,15.85
2023-04-10T06:58:24.628Z,12.60
2023-04-10T07:00:52.321Z,13.45
2023-04-10T07:03:19.373Z,13.73
2023-04-10T07:05:46.977Z,19.02
2023-04-10T07:08:14.289Z,11.27
2023-04-10T07:10:41.678Z,12.73
2023-04-10T07:13:08.689Z,13.90
2023-04-10T07:15:36.298Z,11.15
2023-04-10T07:18:03.678Z,12.57
2023-04-10T07:20:31.315Z,13.60
2023-04-10T07:22:58.394Z,12.63
2023-04-10T07:25:25.936Z,11.90
2023-04-10T07:27:53.004Z,14.77
2023-04-10T07:30:20.947Z,11.35
2023-04-10T07:32:48.266Z,12.70
2023-04-10T07:35:15.874Z,12.35
2023-04-10T07:37:44.236Z,11.15
2023-04-10T07:40:12.130Z,10.60
2023-04-10T07:42:39.352Z,9.80
2023-04-10T07:45:07.710Z,11.48
2023-04-10T07:47:34.706Z,16.35
2023-04-10T07:50:02.110Z,9.35
2023-04-10T07:52:29.212Z,15.23
2023-04-10T07:54:56.764Z,11.88
2023-04-10T07:57:24.650Z,12.10
2023-04-10T07:59:51.957Z,13.02
2023-04-10T08:02:19.142Z,11.30
2023-04-10T08:04:47.214Z,13.52
2023-04-10T08:07:14.326Z,11.90
2023-04-10T08:09:41.716Z,11.57
2023-04-10T08:12:08.697Z,13.02
2023-04-10T08:14:36.237Z,11.57
2023-04-10T08:17:03.295Z,9.95
2023-04-10T08:19:31.086Z,13.93
2023-04-10T08:22:00.143Z,13.20
2023-04-10T08:24:29.632Z,12.90
2023-04-10T08:26:56.620Z,11.27
2023-04-10T08:29:25.397Z,10.20
2023-04-10T08:31:52.508Z,7.82
2023-04-10T08:34:20.272Z,9.82
2023-04-10T08:36:47.383Z,9.70
2023-04-10T08:39:14.736Z,9.32
2023-04-10T08:41:41.790Z,11.25
2023-04-10T08:44:09.407Z,6.78
2023-04-10T08:46:38.961Z,10.45
2023-04-10T08:49:08.431Z,7.47
2023-04-10T08:51:55.088Z,7.82
2023-04-10T08:54:28.365Z,9.23
2023-04-10T08:56:58.562Z,7.93
2023-04-10T08:59:27.927Z,6.47
2023-04-10T09:01:55.681Z,9.32
2023-04-10T09:04:24.650Z,7.68
2023-04-10T09:06:53.214Z,9.68
2023-04-10T09:09:20.916Z,7.50
2023-04-10T09:11:56.940Z,7.97
2023-04-10T09:14:26.648Z,7.88
2023-04-10T09:16:54.938Z,9.13
2023-04-10T09:19:33.434Z,8.05
2023-04-10T09:22:00.733Z,10.27
2023-04-10T09:24:28.465Z,10.23
2023-04-10T09:26:55.744Z,8.73
2023-04-10T09:29:23.163Z,7.32
2023-04-10T09:31:51.338Z,9.57
2023-04-10T09:34:22.345Z,5.28
2023-04-10T09:36:57.905Z,8.18
2023-04-10T09:39:43.353Z,6.15
2023-04-10T09:42:12.461Z,6.60
2023-04-10T09:44:41.720Z,6.95
2023-04-10T09:47:14.804Z,7.25
2023-04-10T09:49:53.084Z,8.43
2023-04-10T09:52:26.269Z,8.93
2023-04-10T09:54:55.893Z,7.63
2023-04-10T09:57:24.862Z,8.02
2023-04-10T09:59:58.436Z,11.38
2023-04-10T10:02:27.831Z,7.22
2023-04-10T10:05:01.465Z,6.15
2023-04-10T10:07:31.224Z,9.20
2023-04-10T10:09:59.312Z,7.43
2023-04-10T10:12:35.338Z,6.55
2023-04-10T10:15:13.003Z,7.55
2023-04-10T10:17:47.053Z,5.95
2023-04-10T10:20:18.297Z,6.32
2023-04-10T10:22:46.711Z,12.02
2023-04-10T10:25:14.659Z,7.20
2023-04-10T10:27:42.308Z,6.22
2023-04-10T10:30:28.175Z,6.32
2023-04-10T10:32:58.330Z,5.15
2023-04-10T10:35:29.236Z,8.70
2023-04-10T10:37:58.413Z,6.90
2023-04-10T10:40:46.670Z,7.38
2023-04-10T10:43:42.312Z,5.68
2023-04-10T10:46:20.808Z,6.53
2023-04-10T10:49:11.780Z,4.47
2023-04-10T10:51:52.200Z,6.43
2023-04-10T10:54:28.141Z,6.55
2023-04-10T10:56:55.993Z,7.65
2023-04-10T10:59:47.750Z,9.63
2023-04-10T11:02:18.003Z,5.93
2023-04-10T11:04:46.829Z,7.70
2023-04-10T11:07:15.656Z,5.35
2023-04-10T11:09:50.586Z,5.90
2023-04-10T11:12:22.325Z,4.78
2023-04-10T11:15:04.955Z,5.85
2023-04-10T11:17:51.806Z,6.20
2023-04-10T11:20:21.996Z,4.95
2023-04-10T11:23:12.198Z,6.93
2023-04-10T11:25:52.284Z,4.97
2023-04-10T11:28:36.702Z,5.90
2023-04-10T11:31:22.192Z,5.03
2023-04-10T11:34:00.543Z,4.85
2023-04-10T11:36:28.414Z,7.47
2023-04-10T11:38:58.872Z,3.85
2023-04-10T11:41:34.337Z,6.75
2023-04-10T11:44:04.686Z,4.63
2023-04-10T11:46:36.232Z,4.10
2023-04-10T11:49:05.698Z,5.82
2023-04-10T11:51:33.489Z,4.72
2023-04-10T11:54:14.450Z,4.50
2023-04-10T11:56:43.612Z,5.28
2023-04-10T11:59:13.579Z,5.88
2023-04-10T12:01:43.359Z,5.50
2023-04-10T12:04:16.795Z,5.60
2023-04-10T12:06:46.223Z,10.68
2023-04-10T12:09:17.231Z,5.25
2023-04-10T12:12:04.580Z,3.25
2023-04-10T12:14:40.066Z,4.68
2023-04-10T12:17:09.399Z,4.80
2023-04-10T12:19:38.256Z,5.45
2023-04-10T12:22:05.649Z,6.05
2023-04-10T12:24:45.346Z,7.15
2023-04-10T12:27:23.418Z,3.92
2023-04-10T12:29:52.487Z,4.00
2023-04-10T12:32:20.337Z,4.75
2023-04-10T12:34:51.863Z,3.40
2023-04-10T12:37:21.079Z,3.97
2023-04-10T12:39:50.129Z,4.15
2023-04-10T12:42:23.252Z,4.25
2023-04-10T12:45:01.014Z,3.50
2023-04-10T12:47:29.419Z,4.10
2023-04-10T12:50:07.011Z,6.28
2023-04-10T12:52:34.881Z,3.45
2023-04-10T12:55:16.819Z,3.47
2023-04-10T12:57:54.921Z,4.22
2023-04-10T13:00:22.766Z,5.40
2023-04-10T13:02:50.016Z,4.85
2023-04-10T13:05:17.847Z,4.65
2023-04-10T13:07:46.042Z,3.75
2023-04-10T13:10:14.461Z,4.70
2023-04-10T13:12:43.943Z,3.63
2023-04-10T13:15:11.794Z,5.10
2023-04-10T13:17:38.977Z,6.20
2023-04-10T13:20:07.093Z,3.75
2023-04-10T13:22:34.351Z,7.72
2023-04-10T13:25:03.832Z,4.43
2023-04-10T13:27:30.941Z,4.82
2023-04-10T13:29:58.715Z,3.75
2023-04-10T13:32:25.993Z,3.42
2023-04-10T13:34:54.814Z,6.15
2023-04-10T13:37:22.356Z,4.93
2023-04-10T13:39:49.865Z,5.13
2023-04-10T13:42:16.897Z,3.65
2023-04-10T13:44:46.368Z,4.13
2023-04-10T13:47:22.485Z,4.63
2023-04-10T13:49:49.752Z,3.58
2023-04-10T13:52:16.744Z,3.45
2023-04-10T13:54:44.338Z,5.25
2023-04-10T13:57:11.414Z,4.40
2023-04-10T13:59:39.053Z,4.63
2023-04-10T14:02:06.183Z,6.18
2023-04-10T14:04:33.783Z,4.07
2023-04-10T14:07:02.345Z,5.50
2023-04-10T14:09:29.781Z,5.32
2023-04-10T14:11:57.965Z,5.80
2023-04-10T14:14:26.072Z,4.15
2023-04-10T14:16:53.128Z,3.10
2023-04-10T14:19:21.309Z,3.63
2023-04-10T14:21:48.486Z,6.20
2023-04-10T14:24:16.119Z,3.72
2023-04-10T14:26:43.111Z,3.80
2023-04-10T14:29:10.867Z,11.82
2023-04-10T14:31:50.462Z,3.45
2023-04-10T14:34:24.448Z,4.10
2023-04-10T14:36:55.916Z,4.22
2023-04-10T14:39:24.655Z,4.72
2023-04-10T14:41:52.275Z,3.50
2023-04-10T14:44:20.292Z,5.05
2023-04-10T14:46:47.628Z,4.93
2023-04-10T14:49:15.314Z,4.30
2023-04-10T14:51:46.465Z,3.30
2023-04-10T14:54:14.246Z,3.28
2023-04-10T14:56:41.305Z,4.63
2023-04-10T14:59:08.921Z,3.47
2023-04-10T15:01:36.911Z,3.33
2023-04-10T15:04:05.540Z,3.95
2023-04-10T15:06:35.663Z,3.50
2023-04-10T15:09:03.545Z,4.07
2023-04-10T15:11:31.025Z,4.10
2023-04-10T15:14:00.443Z,3.45
2023-04-10T15:16:27.971Z,4.47
2023-04-10T15:18:57.210Z,4.50
2023-04-10T15:21:24.816Z,4.78
2023-04-10T15:23:52.924Z,4.07
2023-04-10T15:26:21.310Z,4.05
2023-04-10T15:28:48.877Z,5.03
2023-04-10T15:31:16.818Z,4.55
2023-04-10T15:33:44.538Z,4.15
2023-04-10T15:36:11.649Z,4.68
2023-04-10T15:38:39.182Z,4.55
2023-04-10T15:41:10.610Z,7.80
2023-04-10T15:43:38.472Z,4.65
2023-04-10T15:46:05.859Z,3.45
2023-04-10T15:48:34.084Z,4.57
2023-04-10T15:51:05.561Z,5.18
2023-04-10T15:53:34.796Z,6.97
2023-04-10T15:56:05.654Z,4.18
2023-04-10T15:58:34.238Z,3.92
2023-04-10T16:01:01.825Z,2.78
2023-04-10T16:03:30.655Z,3.92
2023-04-10T16:05:58.546Z,4.40
2023-04-10T16:08:26.577Z,4.93
2023-04-10T16:10:54.027Z,11.13
2023-04-10T16:13:22.963Z,6.97
2023-04-10T16:15:50.303Z,6.90
2023-04-10T16:18:18.020Z,7.85
2023-04-10T16:20:45.936Z,7.00
2023-04-10T16:23:13.634Z,3.50
2023-04-10T16:25:41.347Z,4.40
2023-04-10T16:28:09.227Z,4.40
2023-04-10T16:30:36.976Z,5.35
2023-04-10T16:33:04.945Z,8.63
2023-04-10T16:35:32.509Z,7.53
2023-04-10T16:38:01.420Z,4.22
2023-04-10T16:40:32.605Z,4.80
2023-04-10T16:43:02.002Z,5.20
2023-04-10T16:45:29.293Z,6.05
2023-04-10T16:47:57.307Z,6.90
2023-04-10T16:50:24.487Z,11.05
2023-04-10T16:52:51.883Z,8.93
2023-04-10T16:55:19.542Z,8.98
2023-04-10T16:57:47.563Z,6.82
2023-04-10T17:00:15.095Z,10.48
2023-04-10T17:02:43.167Z,8.25
2023-04-10T17:05:11.471Z,7.82
2023-04-10T17:07:40.404Z,4.15
2023-04-10T17:10:08.493Z,7.05
2023-04-10T17:12:36.798Z,5.63
2023-04-10T17:15:04.566Z,6.20
2023-04-10T17:17:34.332Z,13.02
2023-04-10T17:20:01.799Z,12.40
2023-04-10T17:22:29.107Z,11.02
2023-04-10T17:24:56.533Z,11.45
2023-04-10T17:27:24.336Z,10.23
2023-04-10T17:29:51.717Z,12.55
2023-04-10T17:32:19.147Z,12.20
2023-04-10T17:34:47.039Z,5.80
2023-04-10T17:37:14.784Z,8.55
2023-04-10T17:39:42.458Z,9.65
2023-04-10T17:42:10.036Z,8.82
2023-04-10T17:44:37.502Z,10.48
2023-04-10T17:47:05.458Z,7.95
2023-04-10T17:49:32.470Z,7.95
2023-04-10T17:51:59.955Z,7.40
2023-04-10T17:54:27.266Z,6.78
2023-04-10T17:56:54.890Z,6.35
2023-04-10T17:59:22.035Z,8.90
2023-04-10T18:01:49.709Z,10.38
2023-04-10T18:04:17.095Z,11.70
2023-04-10T18:06:45.081Z,14.90
2023-04-10T18:09:12.257Z,23.70
2023-04-10T18:11:40.763Z,17.63
2023-04-10T18:14:08.421Z,21.33
2023-04-10T18:16:36.546Z,22.50
2023-04-10T18:19:03.839Z,21.70
2023-04-10T18:21:34.564Z,12.48
2023-04-10T18:24:01.763Z,12.25
2023-04-10T18:26:31.781Z,10.00
2023-04-10T18:29:00.257Z,11.30
2023-04-10T18:31:28.395Z,8.45
2023-04-10T18:34:06.447Z,9.50
2023-04-10T18:36:35.817Z,11.25
2023-04-10T18:39:03.333Z,10.40
2023-04-10T18:41:30.913Z,12.45
2023-04-10T18:44:05.029Z,10.45
2023-04-10T18:46:34.226Z,7.75
2023-04-10T18:49:04.114Z,14.02
2023-04-10T18:51:34.983Z,12.38
2023-04-10T18:54:04.114Z,17.42
2023-04-10T18:56:32.421Z,18.20
2023-04-10T18:59:01.881Z,19.23
2023-04-10T19:01:29.866Z,19.55
2023-04-10T19:03:57.378Z,16.60
2023-04-10T19:06:26.875Z,12.20
2023-04-10T19:08:55.903Z,25.80
2023-04-10T19:11:23.600Z,33.03
2023-04-10T19:13:50.918Z,31.90
2023-04-10T19:16:19.479Z,19.02
2023-04-10T19:18:49.844Z,20.08
2023-04-10T19:21:18.269Z,16.88
2023-04-10T19:23:45.637Z,34.30
2023-04-10T19:26:13.203Z,47.00
2023-04-10T19:28:40.287Z,51.70
2023-04-10T19:31:09.016Z,66.68
2023-04-10T19:33:36.107Z,51.97
2023-04-10T19:36:04.119Z,71.22
2023-04-10T19:38:32.943Z,134.85
2023-04-10T19:41:00.170Z,205.43
2023-04-10T19:43:27.458Z,109.03
2023-04-10T19:45:56.273Z,80.75
2023-04-10T19:48:26.035Z,81.93
2023-04-10T19:50:53.653Z,65.32
2023-04-10T19:53:20.740Z,61.03
2023-04-10T19:55:48.411Z,65.60
2023-04-10T19:58:35.663Z,101.25
2023-04-10T20:01:04.518Z,106.70
2023-04-10T20:03:32.863Z,109.57
2023-04-10T20:06:02.974Z,106.57
2023-04-10T20:08:30.580Z,220.25
2023-04-10T20:10:58.509Z,153.85
2023-04-10T20:13:25.880Z,129.95
2023-04-10T20:15:53.495Z,155.60
2023-04-10T20:18:21.147Z,145.75
2023-04-10T20:20:48.440Z,130.85
2023-04-10T20:23:15.681Z,123.82
2023-04-10T20:25:43.032Z,125.32
2023-04-10T20:28:10.031Z,114.50
2023-04-10T20:30:40.039Z,126.22
2023-04-10T20:33:07.038Z,113.15
2023-04-10T20:35:34.681Z,87.93
2023-04-10T20:38:01.916Z,80.88
2023-04-10T20:40:29.332Z,113.03
2023-04-10T20:42:56.378Z,140.98
2023-04-10T20:45:23.977Z,130.10
2023-04-10T20:47:51.167Z,143.80
2023-04-10T20:50:18.796Z,132.23
2023-04-10T20:52:45.879Z,88.95
2023-04-10T20:55:13.220Z,124.28
2023-04-10T20:57:40.336Z,146.50
2023-04-10T21:00:08.275Z,111.55
2023-04-10T21:02:35.525Z,81.60
2023-04-10T21:05:03.349Z,77.15
2023-04-10T21:07:30.467Z,84.25
2023-04-10T21:09:58.004Z,73.43
2023-04-10T21:12:25.102Z,68.53
2023-04-10T21:14:52.348Z,59.72
2023-04-10T21:17:19.730Z,56.70
2023-04-10T21:19:47.195Z,50.55
2023-04-10T21:22:14.245Z,42.08
2023-04-10T21:24:41.815Z,39.05
2023-04-10T21:27:08.782Z,40.30
2023-04-10T21:29:36.177Z,42.13
2023-04-10T21:32:03.260Z,40.83
2023-04-10T21:34:30.859Z,45.75
2023-04-10T21:36:57.956Z,45.97
2023-04-10T21:39:25.374Z,44.97
2023-04-10T21:41:52.382Z,43.35
2023-04-10T21:44:19.871Z,38.63
2023-04-10T21:46:47.218Z,38.28
2023-04-10T21:49:14.527Z,41.10
2023-04-10T21:51:41.608Z,39.30
2023-04-10T21:54:08.977Z,39.55
2023-04-10T21:56:36.838Z,42.65
2023-04-10T21:59:04.267Z,48.72
2023-04-10T22:01:31.366Z,45.03
2023-04-10T22:03:59.049Z,45.63
2023-04-10T22:06:26.726Z,41.67
2023-04-10T22:08:54.450Z,41.65
2023-04-10T22:11:21.661Z,43.13
2023-04-10T22:13:48.860Z,54.15
2023-04-10T22:16:16.527Z,49.90
2023-04-10T22:18:43.710Z,51.25
2023-04-10T22:21:10.784Z,50.30
2023-04-10T22:23:38.076Z,52.00
2023-04-10T22:26:05.346Z,48.67
2023-04-10T22:28:32.916Z,46.45
2023-04-10T22:30:59.829Z,51.20
2023-04-10T22:33:27.188Z,57.25
2023-04-10T22:35:54.281Z,44.78
2023-04-10T22:38:21.614Z,42.92
2023-04-10T22:40:48.554Z,43.03
2023-04-10T22:43:18.641Z,27.55
2023-04-10T22:45:45.675Z,29.42
2023-04-10T22:48:12.887Z,26.90
2023-04-10T22:50:39.925Z,29.08
2023-04-10T22:53:07.160Z,24.40
2023-04-10T22:55:34.152Z,25.42
2023-04-10T22:58:01.365Z,24.15
2023-04-10T23:00:28.543Z,24.50
2023-04-10T23:02:56.005Z,23.08
2023-04-10T23:05:23.245Z,26.38
2023-04-10T23:07:50.731Z,27.55
2023-04-10T23:10:17.759Z,22.67
2023-04-10T23:12:45.323Z,24.77
2023-04-10T23:15:12.525Z,26.23
2023-04-10T23:17:39.831Z,19.42
2023-04-10T23:20:07.416Z,26.85
2023-04-10T23:22:34.727Z,24.13
2023-04-10T23:25:01.774Z,27.23
2023-04-10T23:27:29.047Z,21.38
2023-04-10T23:29:55.999Z,19.88
2023-04-10T23:32:23.502Z,19.83
2023-04-10T23:34:50.506Z,18.90
2023-04-10T23:37:18.025Z,24.65
2023-04-10T23:39:44.965Z,27.83
2023-04-10T23:42:12.305Z,21.00
2023-04-10T23:44:40.080Z,24.23
2023-04-10T23:47:07.669Z,25.60
2023-04-10T23:49:37.262Z,22.08
2023-04-10T23:52:04.829Z,24.85
2023-04-10T23:54:31.772Z,27.40
2023-04-10T23:56:59.441Z,24.55
2023-04-10T23:59:26.400Z,29.02
